<?xml version="1.0" encoding="UTF-8" standalone="no" ?>
<gpx xmlns="http://www.topografix.com/GPX/1/1" xmlns:xsi="http://www.w3.org/2001/XMLSchema-instance" xsi:schemaLocation="http://www.topografix.com/GPX/1/1 http://www.topografix.com/GPX/1/1/gpx.xsd" version="1.1" creator="VisuGPX - https://www.visugpx.com">
  <metadata>
    <name>Wallabies Tet Adriatique Juillet 2025/1</name>
    <desc><![CDATA[Les Wallabies Adriatique 2025]]></desc>
  </metadata>
  <trk>
    <name><![CDATA[3.2 Boat ACT MNE_AL]]></name>
    <extensions>
      <line xmlns="http://www.topografix.com/GPX/gpx_style/0/2">
        <color>ff2600</color>
        <width>4</width>
      </line>
    </extensions>
    <trkseg>
      <trkpt lat="42.10886" lon="19.82647">
        <ele>182.203125</ele>
      </trkpt>
      <trkpt lat="42.10903" lon="19.82686">
        <ele>172.69000244141</ele>
        <time>2023-10-01T13:18:50.000Z</time>
      </trkpt>
      <trkpt lat="42.10903" lon="19.82686">
        <ele>172.69000244141</ele>
        <time>2023-10-01T13:18:50.000Z</time>
      </trkpt>
      <trkpt lat="42.10907" lon="19.827">
        <ele>172.69000244141</ele>
        <time>2023-10-01T13:18:40.000Z</time>
      </trkpt>
      <trkpt lat="42.1092" lon="19.82724">
        <ele>177.02000427246</ele>
        <time>2023-10-01T13:18:20.000Z</time>
      </trkpt>
      <trkpt lat="42.10933" lon="19.82745">
        <ele>176.05999755859</ele>
        <time>2023-10-01T13:18:06.000Z</time>
      </trkpt>
      <trkpt lat="42.10946" lon="19.82756">
        <ele>175.10000610352</ele>
        <time>2023-10-01T13:17:57.000Z</time>
      </trkpt>
      <trkpt lat="42.10964" lon="19.82767">
        <ele>175.58000183105</ele>
        <time>2023-10-01T13:17:47.000Z</time>
      </trkpt>
      <trkpt lat="42.10979" lon="19.82777">
        <ele>175.58000183105</ele>
        <time>2023-10-01T13:17:40.000Z</time>
      </trkpt>
      <trkpt lat="42.10997" lon="19.82785">
        <ele>177.5</ele>
        <time>2023-10-01T13:17:32.000Z</time>
      </trkpt>
      <trkpt lat="42.1102" lon="19.82797">
        <ele>177.5</ele>
        <time>2023-10-01T13:17:22.000Z</time>
      </trkpt>
      <trkpt lat="42.11038" lon="19.82804">
        <ele>177.02000427246</ele>
        <time>2023-10-01T13:17:14.000Z</time>
      </trkpt>
      <trkpt lat="42.11063" lon="19.82816">
        <ele>176.53999328613</ele>
        <time>2023-10-01T13:17:04.000Z</time>
      </trkpt>
      <trkpt lat="42.11094" lon="19.82828">
        <ele>175.10000610352</ele>
        <time>2023-10-01T13:16:54.000Z</time>
      </trkpt>
      <trkpt lat="42.11133" lon="19.82844">
        <ele>173.16999816895</ele>
        <time>2023-10-01T13:16:43.000Z</time>
      </trkpt>
      <trkpt lat="42.1117" lon="19.82861">
        <ele>171.25</ele>
        <time>2023-10-01T13:16:32.000Z</time>
      </trkpt>
      <trkpt lat="42.11205" lon="19.82877">
        <ele>171.25</ele>
        <time>2023-10-01T13:16:22.000Z</time>
      </trkpt>
      <trkpt lat="42.11235" lon="19.82888">
        <ele>171.72999572754</ele>
        <time>2023-10-01T13:16:14.000Z</time>
      </trkpt>
      <trkpt lat="42.11271" lon="19.82905">
        <ele>171.72999572754</ele>
        <time>2023-10-01T13:16:03.000Z</time>
      </trkpt>
      <trkpt lat="42.11296" lon="19.82915">
        <ele>172.69000244141</ele>
        <time>2023-10-01T13:15:57.000Z</time>
      </trkpt>
      <trkpt lat="42.11326" lon="19.82929">
        <ele>172.69000244141</ele>
        <time>2023-10-01T13:15:48.000Z</time>
      </trkpt>
      <trkpt lat="42.11361" lon="19.82947">
        <ele>172.69000244141</ele>
        <time>2023-10-01T13:15:38.000Z</time>
      </trkpt>
      <trkpt lat="42.11391" lon="19.82965">
        <ele>173.66000366211</ele>
        <time>2023-10-01T13:15:30.000Z</time>
      </trkpt>
      <trkpt lat="42.11432" lon="19.8299">
        <ele>173.16999816895</ele>
        <time>2023-10-01T13:15:17.000Z</time>
      </trkpt>
      <trkpt lat="42.11464" lon="19.83011">
        <ele>172.69000244141</ele>
        <time>2023-10-01T13:15:07.000Z</time>
      </trkpt>
      <trkpt lat="42.1152" lon="19.8305">
        <ele>172.69000244141</ele>
        <time>2023-10-01T13:14:50.000Z</time>
      </trkpt>
      <trkpt lat="42.11547" lon="19.8307">
        <ele>172.21000671387</ele>
        <time>2023-10-01T13:14:42.000Z</time>
      </trkpt>
      <trkpt lat="42.11577" lon="19.83091">
        <ele>172.69000244141</ele>
        <time>2023-10-01T13:14:32.000Z</time>
      </trkpt>
      <trkpt lat="42.11607" lon="19.83109">
        <ele>172.69000244141</ele>
        <time>2023-10-01T13:14:24.000Z</time>
      </trkpt>
      <trkpt lat="42.11636" lon="19.83128">
        <ele>172.69000244141</ele>
        <time>2023-10-01T13:14:15.000Z</time>
      </trkpt>
      <trkpt lat="42.11676" lon="19.83156">
        <ele>172.69000244141</ele>
        <time>2023-10-01T13:14:02.000Z</time>
      </trkpt>
      <trkpt lat="42.11707" lon="19.83183">
        <ele>174.13999938965</ele>
        <time>2023-10-01T13:13:51.000Z</time>
      </trkpt>
      <trkpt lat="42.11747" lon="19.83225">
        <ele>174.13999938965</ele>
        <time>2023-10-01T13:13:37.000Z</time>
      </trkpt>
      <trkpt lat="42.11772" lon="19.83307">
        <ele>173.16999816895</ele>
        <time>2023-10-01T13:13:18.000Z</time>
      </trkpt>
      <trkpt lat="42.1178" lon="19.83387">
        <ele>169.33000183105</ele>
        <time>2023-10-01T13:13:02.000Z</time>
      </trkpt>
      <trkpt lat="42.11784" lon="19.83464">
        <ele>168.85000610352</ele>
        <time>2023-10-01T13:12:46.000Z</time>
      </trkpt>
      <trkpt lat="42.11787" lon="19.8354">
        <ele>168.36999511719</ele>
        <time>2023-10-01T13:12:32.000Z</time>
      </trkpt>
      <trkpt lat="42.1179" lon="19.83616">
        <ele>169.33000183105</ele>
        <time>2023-10-01T13:12:16.000Z</time>
      </trkpt>
      <trkpt lat="42.11795" lon="19.83698">
        <ele>168.85000610352</ele>
        <time>2023-10-01T13:12:00.000Z</time>
      </trkpt>
      <trkpt lat="42.11796" lon="19.83757">
        <ele>167.88999938965</ele>
        <time>2023-10-01T13:11:49.000Z</time>
      </trkpt>
      <trkpt lat="42.11797" lon="19.83807">
        <ele>167.41000366211</ele>
        <time>2023-10-01T13:11:39.000Z</time>
      </trkpt>
      <trkpt lat="42.11799" lon="19.83856">
        <ele>170.77000427246</ele>
        <time>2023-10-01T13:11:29.000Z</time>
      </trkpt>
      <trkpt lat="42.11802" lon="19.83907">
        <ele>171.72999572754</ele>
        <time>2023-10-01T13:11:19.000Z</time>
      </trkpt>
      <trkpt lat="42.11805" lon="19.83965">
        <ele>168.36999511719</ele>
        <time>2023-10-01T13:11:07.000Z</time>
      </trkpt>
      <trkpt lat="42.11807" lon="19.8402">
        <ele>168.36999511719</ele>
        <time>2023-10-01T13:10:56.000Z</time>
      </trkpt>
      <trkpt lat="42.11809" lon="19.84069">
        <ele>167.88999938965</ele>
        <time>2023-10-01T13:10:47.000Z</time>
      </trkpt>
      <trkpt lat="42.11811" lon="19.84113">
        <ele>168.85000610352</ele>
        <time>2023-10-01T13:10:38.000Z</time>
      </trkpt>
      <trkpt lat="42.11813" lon="19.84157">
        <ele>169.33000183105</ele>
        <time>2023-10-01T13:10:29.000Z</time>
      </trkpt>
      <trkpt lat="42.11815" lon="19.84208">
        <ele>170.28999328613</ele>
        <time>2023-10-01T13:10:19.000Z</time>
      </trkpt>
      <trkpt lat="42.11817" lon="19.84247">
        <ele>172.21000671387</ele>
        <time>2023-10-01T13:10:11.000Z</time>
      </trkpt>
      <trkpt lat="42.11825" lon="19.84311">
        <ele>174.13999938965</ele>
        <time>2023-10-01T13:09:58.000Z</time>
      </trkpt>
      <trkpt lat="42.11831" lon="19.84354">
        <ele>175.10000610352</ele>
        <time>2023-10-01T13:09:50.000Z</time>
      </trkpt>
      <trkpt lat="42.11837" lon="19.84418">
        <ele>171.72999572754</ele>
        <time>2023-10-01T13:09:37.000Z</time>
      </trkpt>
      <trkpt lat="42.11843" lon="19.84462">
        <ele>170.28999328613</ele>
        <time>2023-10-01T13:09:29.000Z</time>
      </trkpt>
      <trkpt lat="42.11851" lon="19.84506">
        <ele>171.72999572754</ele>
        <time>2023-10-01T13:09:20.000Z</time>
      </trkpt>
      <trkpt lat="42.1186" lon="19.8455">
        <ele>171.72999572754</ele>
        <time>2023-10-01T13:09:11.000Z</time>
      </trkpt>
      <trkpt lat="42.1187" lon="19.84593">
        <ele>170.28999328613</ele>
        <time>2023-10-01T13:09:02.000Z</time>
      </trkpt>
      <trkpt lat="42.11879" lon="19.84635">
        <ele>169.33000183105</ele>
        <time>2023-10-01T13:08:53.000Z</time>
      </trkpt>
      <trkpt lat="42.11889" lon="19.84676">
        <ele>169.80999755859</ele>
        <time>2023-10-01T13:08:45.000Z</time>
      </trkpt>
      <trkpt lat="42.11904" lon="19.8472">
        <ele>170.77000427246</ele>
        <time>2023-10-01T13:08:36.000Z</time>
      </trkpt>
      <trkpt lat="42.11916" lon="19.84761">
        <ele>173.66000366211</ele>
        <time>2023-10-01T13:08:27.000Z</time>
      </trkpt>
      <trkpt lat="42.11931" lon="19.84806">
        <ele>175.58000183105</ele>
        <time>2023-10-01T13:08:17.000Z</time>
      </trkpt>
      <trkpt lat="42.11946" lon="19.8484">
        <ele>176.53999328613</ele>
        <time>2023-10-01T13:08:09.000Z</time>
      </trkpt>
      <trkpt lat="42.1196" lon="19.84872">
        <ele>175.10000610352</ele>
        <time>2023-10-01T13:08:02.000Z</time>
      </trkpt>
      <trkpt lat="42.11969" lon="19.84894">
        <ele>174.13999938965</ele>
        <time>2023-10-01T13:07:57.000Z</time>
      </trkpt>
      <trkpt lat="42.1198" lon="19.84922">
        <ele>174.13999938965</ele>
        <time>2023-10-01T13:07:50.000Z</time>
      </trkpt>
      <trkpt lat="42.11993" lon="19.84948">
        <ele>173.16999816895</ele>
        <time>2023-10-01T13:07:44.000Z</time>
      </trkpt>
      <trkpt lat="42.12012" lon="19.84988">
        <ele>172.69000244141</ele>
        <time>2023-10-01T13:07:35.000Z</time>
      </trkpt>
      <trkpt lat="42.12027" lon="19.85016">
        <ele>173.16999816895</ele>
        <time>2023-10-01T13:07:28.000Z</time>
      </trkpt>
      <trkpt lat="42.12048" lon="19.85053">
        <ele>175.10000610352</ele>
        <time>2023-10-01T13:07:19.000Z</time>
      </trkpt>
      <trkpt lat="42.12061" lon="19.85076">
        <ele>176.05999755859</ele>
        <time>2023-10-01T13:07:13.000Z</time>
      </trkpt>
      <trkpt lat="42.1208" lon="19.8511">
        <ele>176.53999328613</ele>
        <time>2023-10-01T13:07:05.000Z</time>
      </trkpt>
      <trkpt lat="42.12099" lon="19.85145">
        <ele>176.53999328613</ele>
        <time>2023-10-01T13:06:57.000Z</time>
      </trkpt>
      <trkpt lat="42.12118" lon="19.85181">
        <ele>176.53999328613</ele>
        <time>2023-10-01T13:06:48.000Z</time>
      </trkpt>
      <trkpt lat="42.12134" lon="19.8521">
        <ele>175.10000610352</ele>
        <time>2023-10-01T13:06:41.000Z</time>
      </trkpt>
      <trkpt lat="42.12153" lon="19.85241">
        <ele>173.66000366211</ele>
        <time>2023-10-01T13:06:33.000Z</time>
      </trkpt>
      <trkpt lat="42.12167" lon="19.85265">
        <ele>173.16999816895</ele>
        <time>2023-10-01T13:06:27.000Z</time>
      </trkpt>
      <trkpt lat="42.12186" lon="19.85296">
        <ele>173.66000366211</ele>
        <time>2023-10-01T13:06:19.000Z</time>
      </trkpt>
      <trkpt lat="42.12207" lon="19.85326">
        <ele>173.66000366211</ele>
        <time>2023-10-01T13:06:11.000Z</time>
      </trkpt>
      <trkpt lat="42.12232" lon="19.85367">
        <ele>173.66000366211</ele>
        <time>2023-10-01T13:06:01.000Z</time>
      </trkpt>
      <trkpt lat="42.1226" lon="19.85411">
        <ele>174.61999511719</ele>
        <time>2023-10-01T13:05:49.000Z</time>
      </trkpt>
      <trkpt lat="42.12289" lon="19.85461">
        <ele>177.5</ele>
        <time>2023-10-01T13:05:36.000Z</time>
      </trkpt>
      <trkpt lat="42.12313" lon="19.85504">
        <ele>178.46000671387</ele>
        <time>2023-10-01T13:05:26.000Z</time>
      </trkpt>
      <trkpt lat="42.12328" lon="19.85533">
        <ele>178.46000671387</ele>
        <time>2023-10-01T13:05:19.000Z</time>
      </trkpt>
      <trkpt lat="42.12345" lon="19.85562">
        <ele>178.46000671387</ele>
        <time>2023-10-01T13:05:12.000Z</time>
      </trkpt>
      <trkpt lat="42.1237" lon="19.85606">
        <ele>178.46000671387</ele>
        <time>2023-10-01T13:05:01.000Z</time>
      </trkpt>
      <trkpt lat="42.12384" lon="19.85631">
        <ele>177.5</ele>
        <time>2023-10-01T13:04:55.000Z</time>
      </trkpt>
      <trkpt lat="42.124" lon="19.85658">
        <ele>176.53999328613</ele>
        <time>2023-10-01T13:04:48.000Z</time>
      </trkpt>
      <trkpt lat="42.12416" lon="19.85689">
        <ele>175.58000183105</ele>
        <time>2023-10-01T13:04:40.000Z</time>
      </trkpt>
      <trkpt lat="42.12435" lon="19.85719">
        <ele>175.58000183105</ele>
        <time>2023-10-01T13:04:33.000Z</time>
      </trkpt>
      <trkpt lat="42.1246" lon="19.85758">
        <ele>176.05999755859</ele>
        <time>2023-10-01T13:04:23.000Z</time>
      </trkpt>
      <trkpt lat="42.12478" lon="19.85786">
        <ele>175.58000183105</ele>
        <time>2023-10-01T13:04:16.000Z</time>
      </trkpt>
      <trkpt lat="42.12506" lon="19.85828">
        <ele>178.46000671387</ele>
        <time>2023-10-01T13:04:04.000Z</time>
      </trkpt>
      <trkpt lat="42.1254" lon="19.85892">
        <ele>178.94000244141</ele>
        <time>2023-10-01T13:03:49.000Z</time>
      </trkpt>
      <trkpt lat="42.12575" lon="19.85956">
        <ele>178.46000671387</ele>
        <time>2023-10-01T13:03:33.000Z</time>
      </trkpt>
      <trkpt lat="42.126" lon="19.86007">
        <ele>176.05999755859</ele>
        <time>2023-10-01T13:03:21.000Z</time>
      </trkpt>
      <trkpt lat="42.1262" lon="19.86057">
        <ele>176.05999755859</ele>
        <time>2023-10-01T13:03:10.000Z</time>
      </trkpt>
      <trkpt lat="42.12636" lon="19.86096">
        <ele>176.53999328613</ele>
        <time>2023-10-01T13:03:01.000Z</time>
      </trkpt>
      <trkpt lat="42.12654" lon="19.86144">
        <ele>177.5</ele>
        <time>2023-10-01T13:02:50.000Z</time>
      </trkpt>
      <trkpt lat="42.12669" lon="19.86189">
        <ele>177.02000427246</ele>
        <time>2023-10-01T13:02:40.000Z</time>
      </trkpt>
      <trkpt lat="42.1268" lon="19.86226">
        <ele>176.05999755859</ele>
        <time>2023-10-01T13:02:33.000Z</time>
      </trkpt>
      <trkpt lat="42.12694" lon="19.86267">
        <ele>175.58000183105</ele>
        <time>2023-10-01T13:02:24.000Z</time>
      </trkpt>
      <trkpt lat="42.12707" lon="19.86306">
        <ele>174.61999511719</ele>
        <time>2023-10-01T13:02:15.000Z</time>
      </trkpt>
      <trkpt lat="42.12723" lon="19.86348">
        <ele>173.16999816895</ele>
        <time>2023-10-01T13:02:06.000Z</time>
      </trkpt>
      <trkpt lat="42.12739" lon="19.86392">
        <ele>172.21000671387</ele>
        <time>2023-10-01T13:01:57.000Z</time>
      </trkpt>
      <trkpt lat="42.12756" lon="19.86435">
        <ele>173.16999816895</ele>
        <time>2023-10-01T13:01:47.000Z</time>
      </trkpt>
      <trkpt lat="42.12773" lon="19.86478">
        <ele>173.66000366211</ele>
        <time>2023-10-01T13:01:37.000Z</time>
      </trkpt>
      <trkpt lat="42.12786" lon="19.86517">
        <ele>173.16999816895</ele>
        <time>2023-10-01T13:01:29.000Z</time>
      </trkpt>
      <trkpt lat="42.128" lon="19.86558">
        <ele>174.61999511719</ele>
        <time>2023-10-01T13:01:20.000Z</time>
      </trkpt>
      <trkpt lat="42.12815" lon="19.86602">
        <ele>174.61999511719</ele>
        <time>2023-10-01T13:01:10.000Z</time>
      </trkpt>
      <trkpt lat="42.12829" lon="19.86639">
        <ele>176.53999328613</ele>
        <time>2023-10-01T13:01:02.000Z</time>
      </trkpt>
      <trkpt lat="42.12842" lon="19.86678">
        <ele>177.5</ele>
        <time>2023-10-01T13:00:53.000Z</time>
      </trkpt>
      <trkpt lat="42.12852" lon="19.8671">
        <ele>177.5</ele>
        <time>2023-10-01T13:00:46.000Z</time>
      </trkpt>
      <trkpt lat="42.12864" lon="19.86748">
        <ele>177.97999572754</ele>
        <time>2023-10-01T13:00:38.000Z</time>
      </trkpt>
      <trkpt lat="42.12876" lon="19.86785">
        <ele>179.41999816895</ele>
        <time>2023-10-01T13:00:29.000Z</time>
      </trkpt>
      <trkpt lat="42.12887" lon="19.86823">
        <ele>179.41999816895</ele>
        <time>2023-10-01T13:00:21.000Z</time>
      </trkpt>
      <trkpt lat="42.12897" lon="19.8686">
        <ele>179.89999389648</ele>
        <time>2023-10-01T13:00:13.000Z</time>
      </trkpt>
      <trkpt lat="42.12914" lon="19.8692">
        <ele>177.5</ele>
        <time>2023-10-01T13:00:01.000Z</time>
      </trkpt>
      <trkpt lat="42.12927" lon="19.86974">
        <ele>176.53999328613</ele>
        <time>2023-10-01T12:59:49.000Z</time>
      </trkpt>
      <trkpt lat="42.12939" lon="19.87021">
        <ele>177.02000427246</ele>
        <time>2023-10-01T12:59:39.000Z</time>
      </trkpt>
      <trkpt lat="42.1295" lon="19.87058">
        <ele>177.5</ele>
        <time>2023-10-01T12:59:31.000Z</time>
      </trkpt>
      <trkpt lat="42.12961" lon="19.87101">
        <ele>177.5</ele>
        <time>2023-10-01T12:59:22.000Z</time>
      </trkpt>
      <trkpt lat="42.12977" lon="19.87155">
        <ele>179.89999389648</ele>
        <time>2023-10-01T12:59:11.000Z</time>
      </trkpt>
      <trkpt lat="42.12999" lon="19.87226">
        <ele>177.5</ele>
        <time>2023-10-01T12:58:55.000Z</time>
      </trkpt>
      <trkpt lat="42.13017" lon="19.87282">
        <ele>173.16999816895</ele>
        <time>2023-10-01T12:58:44.000Z</time>
      </trkpt>
      <trkpt lat="42.13037" lon="19.87331">
        <ele>170.28999328613</ele>
        <time>2023-10-01T12:58:32.000Z</time>
      </trkpt>
      <trkpt lat="42.13062" lon="19.87376">
        <ele>168.85000610352</ele>
        <time>2023-10-01T12:58:21.000Z</time>
      </trkpt>
      <trkpt lat="42.13086" lon="19.87407">
        <ele>169.80999755859</ele>
        <time>2023-10-01T12:58:12.000Z</time>
      </trkpt>
      <trkpt lat="42.13117" lon="19.87436">
        <ele>170.77000427246</ele>
        <time>2023-10-01T12:58:02.000Z</time>
      </trkpt>
      <trkpt lat="42.13147" lon="19.87466">
        <ele>170.28999328613</ele>
        <time>2023-10-01T12:57:52.000Z</time>
      </trkpt>
      <trkpt lat="42.13184" lon="19.87499">
        <ele>169.33000183105</ele>
        <time>2023-10-01T12:57:40.000Z</time>
      </trkpt>
      <trkpt lat="42.13223" lon="19.87538">
        <ele>168.36999511719</ele>
        <time>2023-10-01T12:57:27.000Z</time>
      </trkpt>
      <trkpt lat="42.13265" lon="19.87581">
        <ele>170.77000427246</ele>
        <time>2023-10-01T12:57:13.000Z</time>
      </trkpt>
      <trkpt lat="42.13275" lon="19.87601">
        <ele>175</ele>
      </trkpt>
      <trkpt lat="42.13275" lon="19.87601">
        <ele>175</ele>
      </trkpt>
      <trkpt lat="42.1328" lon="19.87607">
        <ele>175</ele>
      </trkpt>
      <trkpt lat="42.13437" lon="19.87738">
        <ele>175</ele>
      </trkpt>
      <trkpt lat="42.13626" lon="19.87877">
        <ele>175</ele>
      </trkpt>
      <trkpt lat="42.14066" lon="19.88148">
        <ele>175</ele>
      </trkpt>
      <trkpt lat="42.14237" lon="19.88242">
        <ele>175</ele>
      </trkpt>
      <trkpt lat="42.14422" lon="19.88287">
        <ele>175</ele>
      </trkpt>
      <trkpt lat="42.14847" lon="19.88285">
        <ele>175</ele>
      </trkpt>
      <trkpt lat="42.15418" lon="19.88266">
        <ele>175</ele>
      </trkpt>
      <trkpt lat="42.15866" lon="19.88292">
        <ele>175</ele>
      </trkpt>
      <trkpt lat="42.16169" lon="19.88294">
        <ele>175</ele>
      </trkpt>
      <trkpt lat="42.16263" lon="19.88279">
        <ele>175</ele>
      </trkpt>
      <trkpt lat="42.16364" lon="19.88225">
        <ele>173.7</ele>
      </trkpt>
      <trkpt lat="42.16576" lon="19.88081">
        <ele>175</ele>
      </trkpt>
      <trkpt lat="42.168" lon="19.87738">
        <ele>175</ele>
      </trkpt>
      <trkpt lat="42.16823" lon="19.87695">
        <ele>175</ele>
      </trkpt>
      <trkpt lat="42.16862" lon="19.87646">
        <ele>175</ele>
      </trkpt>
      <trkpt lat="42.16948" lon="19.87549">
        <ele>175</ele>
      </trkpt>
      <trkpt lat="42.171" lon="19.8742">
        <ele>175</ele>
      </trkpt>
      <trkpt lat="42.17563" lon="19.87105">
        <ele>175</ele>
      </trkpt>
      <trkpt lat="42.17774" lon="19.86912">
        <ele>175</ele>
      </trkpt>
      <trkpt lat="42.17933" lon="19.86822">
        <ele>175</ele>
      </trkpt>
      <trkpt lat="42.17997" lon="19.86794">
        <ele>175</ele>
      </trkpt>
      <trkpt lat="42.18029" lon="19.86781">
        <ele>175</ele>
      </trkpt>
      <trkpt lat="42.18085" lon="19.86781">
        <ele>175</ele>
      </trkpt>
      <trkpt lat="42.18233" lon="19.86785">
        <ele>175</ele>
      </trkpt>
      <trkpt lat="42.18302" lon="19.86807">
        <ele>175</ele>
      </trkpt>
      <trkpt lat="42.18396" lon="19.86856">
        <ele>198.6</ele>
      </trkpt>
      <trkpt lat="42.18523" lon="19.86959">
        <ele>223.2</ele>
      </trkpt>
      <trkpt lat="42.18619" lon="19.87047">
        <ele>223.3</ele>
      </trkpt>
      <trkpt lat="42.18701" lon="19.87137">
        <ele>231.2</ele>
      </trkpt>
      <trkpt lat="42.18724" lon="19.87199">
        <ele>223.4</ele>
      </trkpt>
      <trkpt lat="42.18746" lon="19.87277">
        <ele>222.7</ele>
      </trkpt>
      <trkpt lat="42.18763" lon="19.87358">
        <ele>281.7</ele>
      </trkpt>
      <trkpt lat="42.1878" lon="19.87459">
        <ele>247.6</ele>
      </trkpt>
      <trkpt lat="42.18793" lon="19.87556">
        <ele>225.6</ele>
      </trkpt>
      <trkpt lat="42.18814" lon="19.87706">
        <ele>187</ele>
      </trkpt>
      <trkpt lat="42.18917" lon="19.88307">
        <ele>175</ele>
      </trkpt>
      <trkpt lat="42.18935" lon="19.8839">
        <ele>175</ele>
      </trkpt>
      <trkpt lat="42.18986" lon="19.88506">
        <ele>175</ele>
      </trkpt>
      <trkpt lat="42.19027" lon="19.88564">
        <ele>175</ele>
      </trkpt>
      <trkpt lat="42.19083" lon="19.88611">
        <ele>175</ele>
      </trkpt>
      <trkpt lat="42.19183" lon="19.88661">
        <ele>175.9</ele>
      </trkpt>
      <trkpt lat="42.19499" lon="19.88787">
        <ele>175</ele>
      </trkpt>
      <trkpt lat="42.19698" lon="19.88877">
        <ele>175</ele>
      </trkpt>
      <trkpt lat="42.19765" lon="19.8892">
        <ele>175</ele>
      </trkpt>
      <trkpt lat="42.19855" lon="19.88961">
        <ele>175</ele>
      </trkpt>
      <trkpt lat="42.20329" lon="19.89154">
        <ele>175</ele>
      </trkpt>
      <trkpt lat="42.20531" lon="19.89298">
        <ele>175</ele>
      </trkpt>
      <trkpt lat="42.20825" lon="19.89459">
        <ele>175</ele>
      </trkpt>
      <trkpt lat="42.21269" lon="19.89663">
        <ele>175</ele>
      </trkpt>
      <trkpt lat="42.21518" lon="19.89781">
        <ele>175</ele>
      </trkpt>
      <trkpt lat="42.2167" lon="19.89839">
        <ele>175</ele>
      </trkpt>
      <trkpt lat="42.21906" lon="19.89873">
        <ele>175</ele>
      </trkpt>
      <trkpt lat="42.22055" lon="19.89839">
        <ele>175</ele>
      </trkpt>
      <trkpt lat="42.22149" lon="19.898">
        <ele>175</ele>
      </trkpt>
      <trkpt lat="42.22249" lon="19.89713">
        <ele>179.9</ele>
      </trkpt>
      <trkpt lat="42.22278" lon="19.89688">
        <ele>180.4</ele>
      </trkpt>
      <trkpt lat="42.22458" lon="19.89566">
        <ele>178</ele>
      </trkpt>
      <trkpt lat="42.227" lon="19.89448">
        <ele>175</ele>
      </trkpt>
      <trkpt lat="42.22776" lon="19.89375">
        <ele>175</ele>
      </trkpt>
      <trkpt lat="42.22842" lon="19.89281">
        <ele>188.1</ele>
      </trkpt>
      <trkpt lat="42.22911" lon="19.89163">
        <ele>206.2</ele>
      </trkpt>
      <trkpt lat="42.22964" lon="19.88952">
        <ele>205.1</ele>
      </trkpt>
      <trkpt lat="42.23005" lon="19.88774">
        <ele>219.4</ele>
      </trkpt>
      <trkpt lat="42.23127" lon="19.88493">
        <ele>248.5</ele>
      </trkpt>
      <trkpt lat="42.23218" lon="19.88244">
        <ele>284.4</ele>
      </trkpt>
      <trkpt lat="42.23293" lon="19.88092">
        <ele>260.8</ele>
      </trkpt>
      <trkpt lat="42.23445" lon="19.87721">
        <ele>204.8</ele>
      </trkpt>
      <trkpt lat="42.23488" lon="19.87635">
        <ele>190.5</ele>
      </trkpt>
      <trkpt lat="42.23537" lon="19.8756">
        <ele>187.8</ele>
      </trkpt>
      <trkpt lat="42.23608" lon="19.8751">
        <ele>186.4</ele>
      </trkpt>
      <trkpt lat="42.23681" lon="19.87491">
        <ele>197.1</ele>
      </trkpt>
      <trkpt lat="42.23784" lon="19.87508">
        <ele>214.3</ele>
      </trkpt>
      <trkpt lat="42.23868" lon="19.87536">
        <ele>219.9</ele>
      </trkpt>
      <trkpt lat="42.23936" lon="19.87581">
        <ele>220.4</ele>
      </trkpt>
      <trkpt lat="42.24082" lon="19.87734">
        <ele>210</ele>
      </trkpt>
      <trkpt lat="42.24136" lon="19.8783">
        <ele>216.5</ele>
      </trkpt>
      <trkpt lat="42.24194" lon="19.87968">
        <ele>238.4</ele>
      </trkpt>
      <trkpt lat="42.2428" lon="19.88083">
        <ele>232.3</ele>
      </trkpt>
      <trkpt lat="42.24318" lon="19.88186">
        <ele>253.6</ele>
      </trkpt>
      <trkpt lat="42.24361" lon="19.88283">
        <ele>273.4</ele>
      </trkpt>
      <trkpt lat="42.24402" lon="19.88371">
        <ele>295.6</ele>
      </trkpt>
      <trkpt lat="42.24466" lon="19.88532">
        <ele>257.1</ele>
      </trkpt>
      <trkpt lat="42.24469" lon="19.88545">
        <ele>254.1</ele>
      </trkpt>
      <trkpt lat="42.24488" lon="19.88626">
        <ele>228.8</ele>
      </trkpt>
      <trkpt lat="42.2449" lon="19.88731">
        <ele>198.1</ele>
      </trkpt>
      <trkpt lat="42.24486" lon="19.88837">
        <ele>205.5</ele>
      </trkpt>
      <trkpt lat="42.24486" lon="19.88946">
        <ele>223</ele>
      </trkpt>
      <trkpt lat="42.24496" lon="19.89081">
        <ele>233.2</ele>
      </trkpt>
      <trkpt lat="42.24501" lon="19.89116">
        <ele>224.7</ele>
      </trkpt>
      <trkpt lat="42.24507" lon="19.89188">
        <ele>207.9</ele>
      </trkpt>
      <trkpt lat="42.24511" lon="19.89229">
        <ele>200.4</ele>
      </trkpt>
      <trkpt lat="42.24539" lon="19.89315">
        <ele>188.6</ele>
      </trkpt>
      <trkpt lat="42.24563" lon="19.89403">
        <ele>187</ele>
      </trkpt>
      <trkpt lat="42.24612" lon="19.89575">
        <ele>176.4</ele>
      </trkpt>
      <trkpt lat="42.24653" lon="19.89824">
        <ele>174</ele>
      </trkpt>
      <trkpt lat="42.24658" lon="19.8985">
        <ele>173</ele>
      </trkpt>
      <trkpt lat="42.247" lon="19.90088">
        <ele>182.5</ele>
      </trkpt>
      <trkpt lat="42.24762" lon="19.90259">
        <ele>217.5</ele>
      </trkpt>
      <trkpt lat="42.24844" lon="19.90414">
        <ele>201.3</ele>
      </trkpt>
      <trkpt lat="42.24941" lon="19.9056">
        <ele>175.3</ele>
      </trkpt>
      <trkpt lat="42.2505" lon="19.90695">
        <ele>187.1</ele>
      </trkpt>
      <trkpt lat="42.25089" lon="19.90746">
        <ele>219.6</ele>
      </trkpt>
      <trkpt lat="42.25168" lon="19.90789">
        <ele>223.1</ele>
      </trkpt>
      <trkpt lat="42.25258" lon="19.90858">
        <ele>222.7</ele>
      </trkpt>
      <trkpt lat="42.25391" lon="19.90952">
        <ele>211.7</ele>
      </trkpt>
      <trkpt lat="42.25475" lon="19.91015">
        <ele>212.4</ele>
      </trkpt>
      <trkpt lat="42.25554" lon="19.91049">
        <ele>203</ele>
      </trkpt>
      <trkpt lat="42.25647" lon="19.91087">
        <ele>180.9</ele>
      </trkpt>
      <trkpt lat="42.25741" lon="19.91103">
        <ele>184.4</ele>
      </trkpt>
      <trkpt lat="42.25803" lon="19.91122">
        <ele>191.5</ele>
      </trkpt>
      <trkpt lat="42.25817" lon="19.91128">
        <ele>193.5</ele>
      </trkpt>
      <trkpt lat="42.25853" lon="19.91145">
        <ele>197.4</ele>
      </trkpt>
      <trkpt lat="42.2587" lon="19.9116">
        <ele>200.9</ele>
      </trkpt>
      <trkpt lat="42.25925" lon="19.9119">
        <ele>212.7</ele>
      </trkpt>
      <trkpt lat="42.26033" lon="19.91304">
        <ele>250.4</ele>
      </trkpt>
      <trkpt lat="42.26071" lon="19.91351">
        <ele>262</ele>
      </trkpt>
      <trkpt lat="42.26125" lon="19.91396">
        <ele>264.3</ele>
      </trkpt>
      <trkpt lat="42.26196" lon="19.91463">
        <ele>262.7</ele>
      </trkpt>
      <trkpt lat="42.26307" lon="19.91658">
        <ele>297.8</ele>
      </trkpt>
      <trkpt lat="42.26393" lon="19.91789">
        <ele>279.1</ele>
      </trkpt>
      <trkpt lat="42.26414" lon="19.91815">
        <ele>269.2</ele>
      </trkpt>
      <trkpt lat="42.26471" lon="19.91886">
        <ele>248.4</ele>
      </trkpt>
      <trkpt lat="42.26522" lon="19.91978">
        <ele>252.9</ele>
      </trkpt>
      <trkpt lat="42.26576" lon="19.92117">
        <ele>246</ele>
      </trkpt>
      <trkpt lat="42.26631" lon="19.92276">
        <ele>227.4</ele>
      </trkpt>
      <trkpt lat="42.26651" lon="19.92323">
        <ele>215.5</ele>
      </trkpt>
      <trkpt lat="42.26677" lon="19.92465">
        <ele>211.9</ele>
      </trkpt>
      <trkpt lat="42.26704" lon="19.92654">
        <ele>197.2</ele>
      </trkpt>
      <trkpt lat="42.26715" lon="19.92954">
        <ele>193.2</ele>
      </trkpt>
      <trkpt lat="42.26728" lon="19.93165">
        <ele>202.6</ele>
      </trkpt>
      <trkpt lat="42.26741" lon="19.9339">
        <ele>199</ele>
      </trkpt>
      <trkpt lat="42.26745" lon="19.9363">
        <ele>210</ele>
      </trkpt>
      <trkpt lat="42.26763" lon="19.93808">
        <ele>200.2</ele>
      </trkpt>
      <trkpt lat="42.26764" lon="19.93825">
        <ele>197.8</ele>
      </trkpt>
      <trkpt lat="42.26728" lon="19.9398">
        <ele>196</ele>
      </trkpt>
      <trkpt lat="42.26711" lon="19.94027">
        <ele>196</ele>
      </trkpt>
      <trkpt lat="42.26674" lon="19.941">
        <ele>196.6</ele>
      </trkpt>
      <trkpt lat="42.26606" lon="19.9428">
        <ele>193.8</ele>
      </trkpt>
      <trkpt lat="42.26458" lon="19.9457">
        <ele>179.6</ele>
      </trkpt>
      <trkpt lat="42.26267" lon="19.94933">
        <ele>185.4</ele>
      </trkpt>
      <trkpt lat="42.26224" lon="19.9501">
        <ele>195.5</ele>
      </trkpt>
      <trkpt lat="42.26192" lon="19.95087">
        <ele>191.9</ele>
      </trkpt>
      <trkpt lat="42.26183" lon="19.95117">
        <ele>188.4</ele>
      </trkpt>
      <trkpt lat="42.26181" lon="19.95122">
        <ele>188</ele>
      </trkpt>
      <trkpt lat="42.26169" lon="19.95141">
        <ele>186.5</ele>
      </trkpt>
      <trkpt lat="42.26159" lon="19.95158">
        <ele>184.3</ele>
      </trkpt>
      <trkpt lat="42.26093" lon="19.95291">
        <ele>177.5</ele>
      </trkpt>
      <trkpt lat="42.26016" lon="19.95525">
        <ele>189</ele>
      </trkpt>
      <trkpt lat="42.2599" lon="19.95617">
        <ele>194</ele>
      </trkpt>
      <trkpt lat="42.25975" lon="19.95782">
        <ele>189.3</ele>
      </trkpt>
      <trkpt lat="42.25977" lon="19.95845">
        <ele>184.6</ele>
      </trkpt>
      <trkpt lat="42.25973" lon="19.95973">
        <ele>187.5</ele>
      </trkpt>
      <trkpt lat="42.25999" lon="19.96191">
        <ele>174.7</ele>
      </trkpt>
      <trkpt lat="42.26041" lon="19.96345">
        <ele>176</ele>
      </trkpt>
      <trkpt lat="42.26121" lon="19.96561">
        <ele>198.3</ele>
      </trkpt>
      <trkpt lat="42.26162" lon="19.96733">
        <ele>204.6</ele>
      </trkpt>
      <trkpt lat="42.26174" lon="19.96857">
        <ele>205</ele>
      </trkpt>
      <trkpt lat="42.26181" lon="19.96967">
        <ele>201</ele>
      </trkpt>
      <trkpt lat="42.26179" lon="19.97036">
        <ele>200.1</ele>
      </trkpt>
      <trkpt lat="42.26181" lon="19.9713">
        <ele>201.2</ele>
      </trkpt>
      <trkpt lat="42.26192" lon="19.97207">
        <ele>204.7</ele>
      </trkpt>
      <trkpt lat="42.26241" lon="19.97407">
        <ele>207.2</ele>
      </trkpt>
      <trkpt lat="42.2629" lon="19.97613">
        <ele>210.3</ele>
      </trkpt>
      <trkpt lat="42.26297" lon="19.97714">
        <ele>213.1</ele>
      </trkpt>
      <trkpt lat="42.26288" lon="19.97838">
        <ele>216.3</ele>
      </trkpt>
      <trkpt lat="42.26292" lon="19.9799">
        <ele>206.1</ele>
      </trkpt>
      <trkpt lat="42.26331" lon="19.98353">
        <ele>202.7</ele>
      </trkpt>
      <trkpt lat="42.26331" lon="19.98441">
        <ele>210.1</ele>
      </trkpt>
      <trkpt lat="42.26327" lon="19.98493">
        <ele>216.3</ele>
      </trkpt>
      <trkpt lat="42.26314" lon="19.98572">
        <ele>218.5</ele>
      </trkpt>
      <trkpt lat="42.26271" lon="19.98679">
        <ele>225.5</ele>
      </trkpt>
      <trkpt lat="42.26232" lon="19.9878">
        <ele>217.1</ele>
      </trkpt>
      <trkpt lat="42.26204" lon="19.98986">
        <ele>215.1</ele>
      </trkpt>
      <trkpt lat="42.262" lon="19.9922">
        <ele>225</ele>
      </trkpt>
      <trkpt lat="42.262" lon="19.99235">
        <ele>223.4</ele>
      </trkpt>
      <trkpt lat="42.26189" lon="19.99407">
        <ele>179.8</ele>
      </trkpt>
      <trkpt lat="42.26185" lon="19.99574">
        <ele>174</ele>
      </trkpt>
      <trkpt lat="42.26187" lon="19.99722">
        <ele>174.4</ele>
      </trkpt>
      <trkpt lat="42.26194" lon="19.99838">
        <ele>183.1</ele>
      </trkpt>
      <trkpt lat="42.26209" lon="19.99907">
        <ele>184</ele>
      </trkpt>
      <trkpt lat="42.26239" lon="20.00014">
        <ele>192.8</ele>
      </trkpt>
      <trkpt lat="42.26275" lon="20.00098">
        <ele>199.9</ele>
      </trkpt>
      <trkpt lat="42.26299" lon="20.00168">
        <ele>194.2</ele>
      </trkpt>
      <trkpt lat="42.26309" lon="20.00214">
        <ele>194.2</ele>
      </trkpt>
      <trkpt lat="42.26333" lon="20.00316">
        <ele>205.4</ele>
      </trkpt>
      <trkpt lat="42.26344" lon="20.00394">
        <ele>217.8</ele>
      </trkpt>
      <trkpt lat="42.2635" lon="20.00496">
        <ele>220.4</ele>
      </trkpt>
      <trkpt lat="42.2635" lon="20.00503">
        <ele>220</ele>
      </trkpt>
      <trkpt lat="42.2636" lon="20.00719">
        <ele>199.9</ele>
      </trkpt>
      <trkpt lat="42.26361" lon="20.00743">
        <ele>199.9</ele>
      </trkpt>
      <trkpt lat="42.2637" lon="20.00849">
        <ele>196.2</ele>
      </trkpt>
      <trkpt lat="42.2638" lon="20.00922">
        <ele>183.6</ele>
      </trkpt>
      <trkpt lat="42.26387" lon="20.00967">
        <ele>181.5</ele>
      </trkpt>
      <trkpt lat="42.264" lon="20.00982">
        <ele>176.2</ele>
      </trkpt>
      <trkpt lat="42.26408" lon="20.00984">
        <ele>172.6</ele>
      </trkpt>
      <trkpt lat="42.26423" lon="20.00984">
        <ele>169.3</ele>
        <extensions>
          <visugpx:TrkExtension xmlns:visugpx="https://www.visugpx.com/editgpx/">
            <visugpx:node>1</visugpx:node>
            </visugpx:TrkExtension>
        </extensions>
      </trkpt>
    </trkseg>
  </trk>
</gpx>